Terminal Aerodrome Forecast
Issued by NWS Wilmington, OH

Home | Current Version | Previous Version | Text Only | Print | Product List | Glossary On
Versions: 1 2 3 4 5 6 7 8 9 10 11 12 13 14 15 16 17 18 19 20 21 22 23
000
FTUS41 KILN 031853 AAA
TAFILN
TAF AMD
KILN 031853Z 0319/0418 21014G24KT P6SM SCT050
     FM032000 27014G24KT P6SM VCTS BKN050CB
     FM032300 29012G18KT P6SM BKN050
     FM040200 30005KT P6SM SCT050
     FM041400 24007KT P6SM FEW040=

USA.gov is the U.S. government's official web portal to all federal, state and local government web resources and services.